KAUW/AUW METAR and TAF weather

Enter ICAO airport designator
Station Type Date Time Source
KAUW METAR 2020/01/28 10:54 UTC NOAA

KAUW 281054Z AUTO 29009KT 10SM OVC013 M05/M08 A3002 RMK AO2 SLP187 T10501078


Station Type Date Time Source
KAUW Decoded METAR 2020/01/28 10:54 UTC NOAA

WAUSAU DOWNTOWN AIRPORT, WI, United States (KAUW) 44-56N 089-37W 362M
Jan 28, 2020 - 05:54 AM EST / 2020.01.28 1054 UTC
Wind: from the WNW (290 degrees) at 10 MPH (9 KT):0
Visibility: 10 mile(s):0
Sky conditions: overcast
Temperature: 23.0 F (-5.0 C)
Windchill: 12 F (-11 C):1
Dew Point: 18.0 F (-7.8 C)
Relative Humidity: 80%
Pressure (altimeter): 30.02 in. Hg (1016 hPa)
ob: KAUW 281054Z AUTO 29009KT 10SM OVC013 M05/M08 A3002 RMK AO2 SLP187 T10501078
cycle: 11

Station Type Date Time Source
KAUW TAF 2020/01/28 12:39 UTC NOAA

TAF KAUW 281136Z 2812/2912 32003KT P6SM SCT010 OVC015
FM281500 VRB03KT P6SM OVC016
FM282300 VRB03KT P6SM OVC018
FM290400 05003KT P6SM OVC014

Example: see airport list